Time;durP1;ratioP1;P1;durP2;ratioP2;P2;SDS_P1;SDS_P2;PMS_P1;PMS_P2;Temp;Humidity;BMP_temperature;BMP_pressure;BME280_temperature;BME280_humidity;BME280_pressure;Samples;Min_cycle;Max_cycle;Signal;HPM_P1;HPM_P2
2021/12/31 00:02:11;;;;;;;18.88;12.63;;;;;;;4.67;100.00;95003.84;5136976;27;20102;-70
2021/12/31 00:04:36;;;;;;;16.40;10.82;;;;;;;4.22;100.00;95006.41;5136685;27;20109;-70
2021/12/31 00:07:02;;;;;;;19.55;12.38;;;;;;;4.11;100.00;95007.97;5136412;27;20023;-69
2021/12/31 00:09:28;;;;;;;16.98;11.30;;;;;;;4.30;100.00;95004.25;5135258;27;20027;-69
2021/12/31 00:11:53;;;;;;;19.90;12.10;;;;;;;4.33;100.00;95010.72;5136595;27;20031;-70
2021/12/31 00:14:20;;;;;;;18.30;11.90;;;;;;;4.36;100.00;95012.53;5136488;27;20023;-70
2021/12/31 00:16:47;;;;;;;20.27;12.10;;;;;;;4.21;100.00;95018.38;5136439;27;20023;-70
2021/12/31 00:19:14;;;;;;;18.38;12.02;;;;;;;4.43;100.00;95028.44;5136104;27;20047;-69
2021/12/31 00:21:41;;;;;;;18.42;12.20;;;;;;;4.36;100.00;95034.03;5136135;27;20102;-68
2021/12/31 00:24:07;;;;;;;18.23;12.20;;;;;;;4.29;100.00;95029.63;5136055;27;20080;-69
2021/12/31 00:26:32;;;;;;;19.90;12.50;;;;;;;4.34;100.00;95014.91;5136549;27;20023;-70
2021/12/31 00:28:58;;;;;;;20.92;12.95;;;;;;;4.16;100.00;95020.81;5135892;27;20436;-68
2021/12/31 00:31:23;;;;;;;19.83;12.95;;;;;;;4.01;100.00;95023.22;5135841;27;20019;-68
2021/12/31 00:33:49;;;;;;;21.70;13.90;;;;;;;4.07;100.00;95021.50;5134913;27;20019;-69
2021/12/31 00:36:15;;;;;;;20.67;13.85;;;;;;;4.12;100.00;95025.56;5135842;27;20373;-69
2021/12/31 00:38:41;;;;;;;21.13;13.60;;;;;;;3.92;100.00;95031.19;5135963;27;20052;-69
2021/12/31 00:41:06;;;;;;;21.83;14.20;;;;;;;3.68;100.00;95031.47;5135637;27;20315;-69
2021/12/31 00:43:32;;;;;;;24.98;14.35;;;;;;;3.78;100.00;95040.41;5135898;27;20015;-69
2021/12/31 00:45:58;;;;;;;27.08;15.48;;;;;;;3.61;100.00;95037.06;5134577;27;20467;-69
2021/12/31 00:48:23;;;;;;;22.30;14.60;;;;;;;3.55;100.00;95024.16;5135697;27;20451;-69
2021/12/31 00:50:49;;;;;;;24.90;15.10;;;;;;;3.64;100.00;95014.72;5135465;27;20023;-70
2021/12/31 00:53:14;;;;;;;26.42;15.38;;;;;;;3.87;100.00;95002.91;5135422;27;20341;-70
2021/12/31 00:55:40;;;;;;;24.88;15.60;;;;;;;3.78;100.00;94984.78;5134855;27;20058;-69
2021/12/31 00:58:07;;;;;;;24.92;15.80;;;;;;;3.98;100.00;94979.19;5135579;27;20475;-70
2021/12/31 01:00:32;;;;;;;25.83;15.18;;;;;;;3.95;100.00;94973.91;5135557;27;20031;-70
2021/12/31 01:02:58;;;;;;;23.77;15.32;;;;;;;4.00;100.00;94984.88;5135554;27;20023;-70
2021/12/31 01:05:24;;;;;;;26.73;15.35;;;;;;;4.14;100.00;94994.41;5135187;27;20034;-70
2021/12/31 01:07:49;;;;;;;28.25;14.70;;;;;;;4.09;100.00;94994.97;5135620;27;20030;-70
2021/12/31 01:10:18;;;;;;;23.77;14.48;;;;;;;4.23;100.00;94996.44;5135391;27;20068;-69
2021/12/31 01:12:44;;;;;;;24.75;15.85;;;;;;;4.30;100.00;95008.91;5135123;27;20030;-70
2021/12/31 01:20:37;;;;;;;21.98;14.48;;;;;;;4.17;100.00;95001.63;5134937;27;20027;-70
2021/12/31 01:23:03;;;;;;;22.73;14.50;;;;;;;4.09;100.00;95004.94;5134875;27;20019;-69
2021/12/31 01:25:29;;;;;;;21.25;13.50;;;;;;;3.95;100.00;94996.13;5135360;27;20027;-69
2021/12/31 01:27:54;;;;;;;20.40;13.13;;;;;;;3.81;100.00;94997.34;5135003;27;20096;-69
2021/12/31 01:30:20;;;;;;;19.02;11.50;;;;;;;3.61;100.00;95015.59;5134770;27;20035;-69
2021/12/31 01:32:46;;;;;;;19.05;11.73;;;;;;;3.59;100.00;95012.59;5134324;27;20115;-69
2021/12/31 01:35:12;;;;;;;16.58;10.88;;;;;;;3.71;100.00;95019.91;5134658;27;20034;-69
2021/12/31 01:37:38;;;;;;;20.08;12.27;;;;;;;3.65;100.00;95016.97;5134591;27;20455;-69
2021/12/31 01:40:05;;;;;;;16.65;10.68;;;;;;;3.57;100.00;95012.25;5134580;27;20038;-69
2021/12/31 01:42:35;;;;;;;15.07;10.15;;;;;;;3.60;100.00;95008.72;5134533;27;20042;-69
2021/12/31 01:45:09;;;;;;;17.10;11.27;;;;;;;3.65;100.00;95010.88;5134796;27;20062;-69
2021/12/31 01:47:46;;;;;;;16.67;10.75;;;;;;;3.69;100.00;95006.88;5133549;27;20027;-69
2021/12/31 01:50:13;;;;;;;18.05;10.75;;;;;;;3.74;100.00;95019.03;5133503;27;20027;-69
2021/12/31 01:52:41;;;;;;;15.77;10.70;;;;;;;3.73;100.00;95022.91;5134640;27;20034;-69
2021/12/31 01:55:10;;;;;;;18.95;10.70;;;;;;;3.44;100.00;95018.38;5134314;27;20026;-69
2021/12/31 01:57:36;;;;;;;17.50;10.70;;;;;;;3.43;100.00;95021.47;5134172;27;20047;-69
2021/12/31 02:00:03;;;;;;;17.05;10.20;;;;;;;3.51;100.00;95034.25;5134284;27;20019;-69
2021/12/31 02:02:29;;;;;;;17.55;10.13;;;;;;;3.36;100.00;95019.75;5134170;27;20022;-69
2021/12/31 02:04:55;;;;;;;16.38;10.00;;;;;;;3.22;100.00;95026.28;5133164;27;20030;-68
2021/12/31 02:07:20;;;;;;;15.68;9.82;;;;;;;3.23;100.00;95025.06;5133588;27;20076;-68
2021/12/31 02:09:48;;;;;;;16.58;10.48;;;;;;;3.25;100.00;95013.94;5134497;27;20053;-69
2021/12/31 02:12:13;;;;;;;18.45;10.52;;;;;;;3.25;100.00;95022.72;5134050;27;20023;-68
2021/12/31 02:14:39;;;;;;;17.23;9.93;;;;;;;3.18;100.00;95023.69;5134076;27;20076;-69
2021/12/31 02:17:07;;;;;;;15.27;9.50;;;;;;;3.10;100.00;95024.31;5134053;27;20112;-69
2021/12/31 02:19:34;;;;;;;15.90;10.00;;;;;;;3.12;100.00;95014.66;5133096;28;20019;-69
2021/12/31 02:22:00;;;;;;;14.52;9.57;;;;;;;3.22;100.00;95029.69;5134031;27;20031;-69
2021/12/31 02:24:26;;;;;;;15.32;9.35;;;;;;;3.06;100.00;95027.06;5134254;27;20111;-69
2021/12/31 02:26:52;;;;;;;15.15;9.52;;;;;;;3.06;100.00;95024.38;5135019;27;20499;-69
2021/12/31 02:29:18;;;;;;;18.42;10.15;;;;;;;3.11;100.00;95034.59;5132989;28;20421;-68
2021/12/31 02:31:44;;;;;;;15.70;9.65;;;;;;;3.12;100.00;95028.06;5133839;27;20027;-68
2021/12/31 02:34:10;;;;;;;15.07;9.50;;;;;;;3.17;100.00;95030.22;5133839;27;20469;-68
2021/12/31 02:36:35;;;;;;;15.75;10.15;;;;;;;3.09;100.00;95030.84;5133804;27;20031;-69
2021/12/31 02:39:02;;;;;;;14.68;10.20;;;;;;;3.02;100.00;95031.78;5132880;27;20015;-69
2021/12/31 02:41:28;;;;;;;14.50;9.80;;;;;;;2.97;100.00;95024.25;5134074;27;20045;-69
2021/12/31 02:43:53;;;;;;;16.50;10.10;;;;;;;2.94;100.00;95027.78;5133818;27;20370;-70
2021/12/31 02:46:19;;;;;;;17.25;10.07;;;;;;;2.95;100.00;95032.72;5132815;27;20118;-69
2021/12/31 02:48:44;;;;;;;16.02;9.65;;;;;;;2.95;100.00;95037.34;5134251;27;20031;-69
2021/12/31 02:51:11;;;;;;;17.33;10.90;;;;;;;2.86;100.00;95048.66;5133716;27;20391;-69
2021/12/31 02:53:40;;;;;;;15.20;8.85;;;;;;;2.79;100.00;95057.63;5132754;27;20042;-69
2021/12/31 02:56:09;;;;;;;16.25;10.13;;;;;;;2.86;100.00;95060.16;5133488;27;20453;-69
2021/12/31 02:58:35;;;;;;;15.32;9.50;;;;;;;2.79;100.00;95052.28;5134225;27;20023;-69
2021/12/31 03:01:03;;;;;;;14.57;9.45;;;;;;;2.77;100.00;95060.00;5133601;27;20042;-69
2021/12/31 03:03:32;;;;;;;14.88;8.93;;;;;;;2.83;100.00;95058.31;5132621;28;20030;-69
2021/12/31 03:05:58;;;;;;;12.43;8.13;;;;;;;2.76;100.00;95053.13;5133517;27;20455;-69
2021/12/31 03:08:28;;;;;;;12.93;8.68;;;;;;;2.79;100.00;95054.97;5133678;27;20034;-69
2021/12/31 03:10:56;;;;;;;14.88;9.77;;;;;;;2.83;100.00;95052.94;5132372;28;20015;-68
2021/12/31 03:13:23;;;;;;;14.75;8.93;;;;;;;2.84;100.00;95049.09;5133949;27;20443;-68
2021/12/31 03:15:50;;;;;;;14.45;8.82;;;;;;;2.79;100.00;95057.63;5132477;28;20019;-69
2021/12/31 03:18:18;;;;;;;13.80;8.93;;;;;;;2.75;100.00;95056.22;5134310;27;20018;-69
2021/12/31 03:20:57;;;;;;;13.77;8.75;;;;;;;2.71;100.00;95067.03;5137304;27;20432;-69
2021/12/31 03:23:27;;;;;;;14.75;9.32;;;;;;;2.74;100.00;95070.81;5137236;27;20019;-69
2021/12/31 03:25:53;;;;;;;15.77;9.23;;;;;;;2.85;100.00;95072.06;5137437;27;20132;-69
2021/12/31 03:28:19;;;;;;;12.93;8.77;;;;;;;2.83;100.00;95079.75;5137013;27;20035;-68
2021/12/31 03:30:48;;;;;;;15.43;9.43;;;;;;;2.85;100.00;95076.66;5136103;27;20114;-69
2021/12/31 03:33:15;;;;;;;14.65;9.88;;;;;;;2.99;100.00;95091.63;5136995;27;20019;-69
2021/12/31 03:35:40;;;;;;;15.25;9.55;;;;;;;2.87;100.00;95090.41;5136923;27;20495;-68
2021/12/31 03:38:06;;;;;;;19.75;10.75;;;;;;;2.91;100.00;95098.34;5136898;27;20027;-69
2021/12/31 03:40:32;;;;;;;12.55;8.32;;;;;;;2.69;100.00;95078.19;5137086;27;20018;-69
2021/12/31 03:42:57;;;;;;;11.82;8.20;;;;;;;2.71;100.00;95088.47;5135777;27;20027;-69
2021/12/31 03:45:23;;;;;;;11.85;7.82;;;;;;;2.65;100.00;95082.88;5136744;27;20031;-69
2021/12/31 03:47:49;;;;;;;14.45;8.70;;;;;;;2.68;100.00;95092.00;5136683;27;20027;-69
2021/12/31 03:50:14;;;;;;;14.25;9.30;;;;;;;2.64;100.00;95084.03;5137125;27;20038;-69
2021/12/31 03:52:40;;;;;;;15.50;9.38;;;;;;;2.65;100.00;95106.25;5136634;27;20100;-69
2021/12/31 03:55:08;;;;;;;14.23;9.23;;;;;;;2.69;100.00;95106.94;5136576;27;20027;-69
2021/12/31 03:57:34;;;;;;;13.55;8.82;;;;;;;2.71;100.00;95101.88;5136890;27;20135;-69
2021/12/31 04:00:00;;;;;;;12.93;8.68;;;;;;;2.69;100.00;95106.94;5135774;27;20048;-69
2021/12/31 04:02:26;;;;;;;14.15;9.10;;;;;;;2.70;100.00;95113.81;5136420;27;20041;-69
2021/12/31 04:04:52;;;;;;;15.15;9.40;;;;;;;2.66;100.00;95111.19;5135431;27;20019;-69
2021/12/31 04:07:19;;;;;;;15.25;9.05;;;;;;;2.52;100.00;95104.25;5136370;27;20438;-69
2021/12/31 04:09:45;;;;;;;16.63;9.65;;;;;;;2.43;100.00;95098.72;5136304;27;20381;-69
2021/12/31 04:12:10;;;;;;;15.27;8.70;;;;;;;2.38;100.00;95103.84;5136283;27;20034;-69
2021/12/31 04:14:36;;;;;;;17.02;9.45;;;;;;;2.34;100.00;95095.88;5136497;27;20047;-69
2021/12/31 04:17:01;;;;;;;15.57;10.00;;;;;;;2.40;100.00;95085.41;5136662;27;20019;-68
2021/12/31 04:19:27;;;;;;;15.50;10.10;;;;;;;2.37;100.00;95097.72;5136091;27;20084;-68
2021/12/31 04:21:52;;;;;;;13.85;9.27;;;;;;;2.34;100.00;95093.19;5136544;27;20087;-68
2021/12/31 04:24:51;;;;;;;16.52;10.20;;;;;;;2.33;100.00;95100.50;5135952;27;20019;-69
2021/12/31 04:27:16;;;;;;;17.60;10.45;;;;;;;2.42;100.00;95089.19;5135859;27;20031;-69
2021/12/31 04:29:49;;;;;;;15.35;9.52;;;;;;;2.34;100.00;95090.50;5135275;27;20035;-69
2021/12/31 04:32:15;;;;;;;14.25;9.65;;;;;;;2.29;100.00;95091.00;5136205;27;20436;-68
2021/12/31 04:34:40;;;;;;;15.30;9.68;;;;;;;2.32;100.00;95092.88;5134898;27;20034;-68
2021/12/31 04:37:06;;;;;;;14.40;9.45;;;;;;;2.38;100.00;95093.13;5135703;27;20105;-68
2021/12/31 04:39:31;;;;;;;17.33;9.23;;;;;;;2.37;100.00;95089.66;5136201;27;20019;-69
2021/12/31 04:41:57;;;;;;;14.48;8.50;;;;;;;2.30;100.00;95103.25;5135596;27;20015;-68
2021/12/31 04:44:22;;;;;;;13.48;8.70;;;;;;;2.30;100.00;95103.25;5134610;27;20025;-68
2021/12/31 04:46:48;;;;;;;14.55;8.75;;;;;;;2.31;100.00;95110.84;5135550;27;20027;-68
2021/12/31 04:49:13;;;;;;;13.40;8.45;;;;;;;2.39;100.00;95116.03;5135917;27;20072;-68
2021/12/31 04:51:38;;;;;;;14.25;9.05;;;;;;;2.74;100.00;95122.50;5135437;27;20019;-68
2021/12/31 04:54:06;;;;;;;14.02;8.77;;;;;;;2.81;100.00;95114.28;5134524;27;20103;-69
2021/12/31 04:56:32;;;;;;;14.00;8.88;;;;;;;2.75;100.00;95121.31;5135243;27;20043;-69
2021/12/31 04:58:57;;;;;;;13.60;8.45;;;;;;;2.79;100.00;95113.19;5135383;27;20080;-69
2021/12/31 05:01:23;;;;;;;15.55;9.23;;;;;;;2.62;100.00;95107.06;5135829;27;20020;-69
2021/12/31 05:03:48;;;;;;;15.57;9.10;;;;;;;2.57;100.00;95102.25;5135227;27;20470;-69
2021/12/31 05:06:15;;;;;;;18.80;9.07;;;;;;;2.36;100.00;95101.56;5135507;27;20046;-69
2021/12/31 05:08:41;;;;;;;11.90;7.95;;;;;;;2.43;100.00;95106.75;5135022;27;20034;-68
2021/12/31 05:11:06;;;;;;;12.68;8.75;;;;;;;2.43;100.00;95112.13;5135099;27;20464;-69
2021/12/31 05:13:32;;;;;;;14.65;8.48;;;;;;;2.47;100.00;95107.44;5134084;27;20027;-69
2021/12/31 05:16:02;;;;;;;13.60;8.65;;;;;;;2.54;100.00;95114.56;5135557;27;20068;-69
2021/12/31 05:18:28;;;;;;;14.02;8.43;;;;;;;2.45;100.00;95119.75;5135231;27;20019;-69
2021/12/31 05:20:53;;;;;;;14.60;7.78;;;;;;;2.57;100.00;95121.75;5133878;27;20183;-69
2021/12/31 05:23:19;;;;;;;12.35;7.78;;;;;;;2.59;100.00;95113.28;5135120;27;20023;-69
2021/12/31 05:25:44;;;;;;;11.23;6.65;;;;;;;2.60;100.00;95120.16;5134847;27;20041;-69
2021/12/31 05:28:10;;;;;;;12.15;7.70;;;;;;;2.62;100.00;95112.44;5135023;27;20014;-69
2021/12/31 05:30:35;;;;;;;10.20;7.20;;;;;;;2.43;100.00;95116.75;5134710;27;20102;-69
2021/12/31 05:33:01;;;;;;;11.70;7.85;;;;;;;2.35;100.00;95108.09;5134686;27;20087;-69
2021/12/31 05:35:27;;;;;;;13.20;7.43;;;;;;;2.28;100.00;95111.69;5135197;27;20101;-67
2021/12/31 05:37:52;;;;;;;12.82;7.15;;;;;;;2.37;100.00;95111.09;5133707;27;20515;-70
2021/12/31 05:40:18;;;;;;;11.20;7.43;;;;;;;2.46;100.00;95102.50;5133668;27;20011;-69
2021/12/31 05:42:44;;;;;;;15.35;7.38;;;;;;;2.62;100.00;95107.06;5133633;27;20023;-68
2021/12/31 05:45:09;;;;;;;10.32;6.95;;;;;;;2.61;100.00;95111.69;5134373;27;20448;-69
2021/12/31 05:47:36;;;;;;;13.05;6.78;;;;;;;2.68;100.00;95116.88;5134496;27;20507;-69
2021/12/31 05:50:04;;;;;;;10.75;7.45;;;;;;;2.65;100.00;95119.66;5134283;27;20460;-69
2021/12/31 05:52:30;;;;;;;10.98;6.88;;;;;;;2.75;100.00;95120.56;5133407;27;20024;-70
2021/12/31 05:54:56;;;;;;;9.90;6.47;;;;;;;2.46;100.00;95126.63;5134640;27;20019;-70
2021/12/31 05:57:21;;;;;;;11.80;7.45;;;;;;;2.57;100.00;95142.44;5134240;27;20539;-68
2021/12/31 05:59:47;;;;;;;11.52;7.25;;;;;;;2.56;100.00;95133.63;5133263;27;20026;-68
2021/12/31 06:02:12;;;;;;;12.35;7.88;;;;;;;2.57;100.00;95131.72;5134469;27;20019;-70
2021/12/31 06:04:38;;;;;;;12.70;8.27;;;;;;;2.65;100.00;95146.47;5133171;27;20049;-69
2021/12/31 06:07:04;;;;;;;12.70;8.10;;;;;;;2.66;100.00;95151.41;5134216;27;20092;-68
2021/12/31 06:09:30;;;;;;;12.43;7.80;;;;;;;2.70;100.00;95151.34;5134538;27;20023;-69
2021/12/31 06:11:58;;;;;;;12.95;8.07;;;;;;;2.98;100.00;95138.41;5134422;27;20019;-69
2021/12/31 06:14:24;;;;;;;12.82;8.88;;;;;;;3.18;100.00;95141.72;5134180;27;20019;-69
2021/12/31 06:16:51;;;;;;;13.35;8.65;;;;;;;3.22;100.00;95150.41;5134132;27;20092;-69
2021/12/31 06:19:16;;;;;;;13.32;8.75;;;;;;;3.28;100.00;95139.19;5134143;27;20014;-69
2021/12/31 06:21:43;;;;;;;14.38;8.80;;;;;;;3.15;100.00;95142.56;5134732;27;20079;-69
2021/12/31 06:24:09;;;;;;;15.27;9.15;;;;;;;3.07;100.00;95141.22;5134067;27;20096;-69
2021/12/31 06:26:36;;;;;;;14.90;9.38;;;;;;;3.10;100.00;95155.72;5134009;27;20054;-69
2021/12/31 06:29:03;;;;;;;14.82;9.10;;;;;;;3.21;100.00;95162.31;5132850;28;20049;-69
2021/12/31 06:31:29;;;;;;;14.32;9.35;;;;;;;3.27;100.00;95164.50;5133999;27;20102;-69
2021/12/31 06:33:55;;;;;;;14.07;8.38;;;;;;;3.53;100.00;95170.72;5133906;27;20023;-69
2021/12/31 06:36:21;;;;;;;17.27;8.90;;;;;;;4.04;100.00;95186.22;5133927;27;20035;-69
2021/12/31 06:38:47;;;;;;;14.98;8.82;;;;;;;4.18;100.00;95177.75;5133872;27;20098;-70
2021/12/31 06:41:15;;;;;;;12.65;8.30;;;;;;;4.48;100.00;95181.09;5134185;27;20061;-70
2021/12/31 06:43:41;;;;;;;14.88;8.18;;;;;;;4.58;100.00;95192.69;5133821;27;20102;-70
2021/12/31 06:46:07;;;;;;;12.27;7.60;;;;;;;4.48;100.00;95181.09;5134082;27;20055;-69
2021/12/31 06:48:32;;;;;;;10.20;6.80;;;;;;;4.55;100.00;95185.50;5133896;27;20065;-69
2021/12/31 06:50:57;;;;;;;12.38;7.38;;;;;;;4.86;100.00;95177.63;5134334;27;20088;-69
2021/12/31 06:53:23;;;;;;;7.70;5.20;;;;;;;4.78;100.00;95173.66;5135357;27;20023;-72
2021/12/31 06:55:48;;;;;;;4.80;3.55;;;;;;;4.73;100.00;95171.50;5137810;27;20107;-69
2021/12/31 06:58:14;;;;;;;4.75;3.20;;;;;;;4.90;100.00;95177.53;5138240;27;20027;-70
2021/12/31 07:00:41;;;;;;;4.13;3.10;;;;;;;4.88;100.00;95161.81;5137581;27;20031;-70
2021/12/31 07:03:15;;;;;;;5.07;3.67;;;;;;;5.00;100.00;95170.28;5137620;27;20031;-69
2021/12/31 07:05:42;;;;;;;5.28;3.20;;;;;;;4.93;100.00;95175.91;5137894;27;20460;-69
2021/12/31 07:08:08;;;;;;;3.78;2.50;;;;;;;4.84;100.00;95163.09;5137482;27;20088;-69
2021/12/31 07:10:33;;;;;;;3.28;2.40;;;;;;;4.68;100.00;95169.38;5137755;27;20031;-68
2021/12/31 07:13:00;;;;;;;3.90;2.70;;;;;;;4.78;100.00;95170.97;5136376;27;20030;-68
2021/12/31 07:15:26;;;;;;;3.50;2.55;;;;;;;5.01;100.00;95174.50;5137390;27;20064;-68
2021/12/31 07:17:52;;;;;;;3.33;2.50;;;;;;;5.20;100.00;95172.72;5136234;27;20027;-68
2021/12/31 07:20:18;;;;;;;3.80;2.50;;;;;;;5.34;100.00;95168.81;5137219;27;20084;-68
2021/12/31 07:22:44;;;;;;;3.53;2.67;;;;;;;5.27;100.00;95174.44;5137062;27;20114;-68
2021/12/31 07:25:09;;;;;;;4.45;3.17;;;;;;;5.40;100.00;95169.78;5137083;27;20106;-68
2021/12/31 07:27:35;;;;;;;3.97;2.60;;;;;;;5.30;100.00;95165.47;5137544;27;20042;-68
2021/12/31 07:30:00;;;;;;;3.78;2.60;;;;;;;5.39;100.00;95163.63;5136944;27;20027;-69
2021/12/31 07:32:27;;;;;;;7.47;2.78;;;;;;;5.25;100.00;95170.22;5135969;27;20113;-68
2021/12/31 07:34:52;;;;;;;3.40;2.70;;;;;;;5.67;100.00;95158.44;5137010;27;20027;-69
2021/12/31 07:37:18;;;;;;;6.07;3.03;;;;;;;5.52;100.00;95166.28;5136955;27;20038;-69
2021/12/31 07:39:47;;;;;;;4.70;3.20;;;;;;;5.70;100.00;95170.25;5137431;27;20030;-69
2021/12/31 07:42:14;;;;;;;5.03;2.80;;;;;;;5.71;100.00;95169.84;5136872;27;20033;-69
2021/12/31 07:44:40;;;;;;;4.60;2.92;;;;;;;5.54;100.00;95173.91;5136751;27;20018;-69
2021/12/31 07:47:06;;;;;;;4.55;3.10;;;;;;;5.62;100.00;95163.63;5136731;27;20033;-69
2021/12/31 07:49:31;;;;;;;4.20;3.05;;;;;;;5.90;100.00;95178.81;5136679;27;20058;-69
2021/12/31 07:51:57;;;;;;;4.35;2.80;;;;;;;5.80;100.00;95174.53;5136650;27;20034;-69
2021/12/31 07:54:22;;;;;;;3.65;2.65;;;;;;;5.75;100.00;95172.41;5135540;27;20027;-69
2021/12/31 07:56:47;;;;;;;4.28;2.85;;;;;;;5.73;100.00;95169.41;5135388;27;20059;-69
2021/12/31 07:59:13;;;;;;;8.80;3.35;;;;;;;5.64;100.00;95169.34;5136520;27;20088;-69
2021/12/31 08:01:39;;;;;;;5.30;2.80;;;;;;;5.90;100.00;95186.88;5136542;27;20391;-69
2021/12/31 08:04:04;;;;;;;5.15;3.28;;;;;;;6.31;100.00;95194.31;5136369;27;20125;-69
2021/12/31 08:06:30;;;;;;;4.55;3.10;;;;;;;6.26;100.00;95193.69;5134594;27;20094;-69
2021/12/31 08:08:55;;;;;;;4.35;3.15;;;;;;;6.38;100.00;95204.84;5136426;27;20478;-70
2021/12/31 08:11:21;;;;;;;3.47;2.78;;;;;;;6.31;100.00;95188.94;5135467;27;20387;-70
2021/12/31 08:13:47;;;;;;;4.35;3.10;;;;;;;6.49;100.00;95185.56;5136328;27;20019;-70
2021/12/31 08:16:12;;;;;;;5.07;3.40;;;;;;;6.53;100.00;95189.63;5136281;27;20065;-69
2021/12/31 08:18:38;;;;;;;5.00;3.05;;;;;;;6.49;100.00;95186.34;5135932;27;20047;-69
2021/12/31 08:21:03;;;;;;;3.97;2.90;;;;;;;6.94;100.00;95201.16;5135264;27;20023;-70
2021/12/31 08:23:29;;;;;;;4.43;2.65;;;;;;;6.73;100.00;95200.03;5136052;27;20023;-69
2021/12/31 08:25:54;;;;;;;3.63;2.72;;;;;;;6.83;100.00;95194.69;5136097;27;20034;-69
2021/12/31 08:28:20;;;;;;;2.95;2.28;;;;;;;6.71;100.00;95191.66;5136118;27;20109;-69
2021/12/31 08:30:46;;;;;;;4.95;2.72;;;;;;;6.87;100.00;95196.06;5135851;27;20459;-69
2021/12/31 08:33:11;;;;;;;5.18;2.70;;;;;;;7.56;100.00;95198.72;5136176;27;20114;-69
2021/12/31 08:35:37;;;;;;;7.30;2.72;;;;;;;8.02;100.00;95200.66;5135933;27;20102;-68
2021/12/31 08:38:02;;;;;;;4.88;3.00;;;;;;;8.22;100.00;95194.72;5136133;27;20057;-68
2021/12/31 08:40:28;;;;;;;10.38;6.07;;;;;;;9.00;96.90;95194.31;5136133;27;20027;-68
2021/12/31 08:42:54;;;;;;;18.77;9.85;;;;;;;9.67;93.65;95199.59;5135873;27;20019;-69
2021/12/31 08:45:19;;;;;;;12.93;9.00;;;;;;;10.20;86.02;95190.72;5135512;27;20027;-68
2021/12/31 08:47:45;;;;;;;20.65;9.48;;;;;;;10.73;77.94;95182.91;5135507;27;20043;-68
2021/12/31 08:50:11;;;;;;;17.65;9.60;;;;;;;10.69;76.27;95185.06;5135811;27;20337;-68
2021/12/31 08:52:37;;;;;;;15.90;9.40;;;;;;;11.78;73.10;95205.00;5135823;27;20060;-69
2021/12/31 08:55:04;;;;;;;14.15;9.32;;;;;;;11.35;72.86;95196.59;5135409;27;20548;-69
2021/12/31 08:57:29;;;;;;;14.82;9.70;;;;;;;11.96;69.91;95188.41;5135326;27;20104;-69
2021/12/31 08:59:55;;;;;;;13.80;9.52;;;;;;;11.86;62.21;95194.47;5134797;27;20370;-69
2021/12/31 09:02:20;;;;;;;14.43;9.85;;;;;;;12.59;58.60;95197.88;5135546;27;20023;-69
2021/12/31 09:04:46;;;;;;;16.70;10.52;;;;;;;12.03;58.56;95191.94;5135344;27;20442;-69
2021/12/31 09:07:11;;;;;;;25.55;9.80;;;;;;;13.30;55.91;95191.88;5135479;27;20184;-71
2021/12/31 09:09:37;;;;;;;19.10;9.75;;;;;;;13.96;56.43;95181.00;5135406;27;20038;-71
2021/12/31 09:12:03;;;;;;;18.92;10.57;;;;;;;14.17;52.54;95180.78;5135354;27;20023;-69
2021/12/31 09:14:28;;;;;;;13.85;9.75;;;;;;;14.61;51.59;95189.50;5135061;27;20367;-69
2021/12/31 09:16:54;;;;;;;15.48;10.75;;;;;;;14.32;49.95;95175.09;5133814;27;20023;-69
2021/12/31 09:19:19;;;;;;;14.77;10.23;;;;;;;15.03;48.90;95185.75;5134961;27;20023;-69
2021/12/31 09:21:45;;;;;;;20.23;11.07;;;;;;;15.55;48.22;95173.41;5134995;27;20035;-70
2021/12/31 09:24:11;;;;;;;17.60;11.35;;;;;;;15.79;46.97;95180.28;5134956;27;20128;-68
2021/12/31 09:26:36;;;;;;;21.02;11.63;;;;;;;15.67;46.92;95174.09;5135102;27;20048;-69
2021/12/31 09:29:02;;;;;;;18.63;10.82;;;;;;;15.75;46.40;95179.03;5133687;27;20026;-70
2021/12/31 09:31:28;;;;;;;18.42;11.50;;;;;;;16.46;45.78;95180.38;5135015;27;20023;-68
2021/12/31 09:33:53;;;;;;;15.38;10.70;;;;;;;15.91;46.32;95169.28;5134442;27;20451;-69
2021/12/31 09:36:19;;;;;;;15.13;10.80;;;;;;;16.29;45.01;95175.03;5134508;27;20023;-69
2021/12/31 09:38:44;;;;;;;19.40;10.52;;;;;;;16.55;43.28;95164.38;5134604;27;20023;-70
2021/12/31 09:41:10;;;;;;;12.80;8.88;;;;;;;14.92;46.80;95152.97;5134602;27;20034;-70
2021/12/31 09:43:38;;;;;;;15.07;8.52;;;;;;;15.98;45.54;95153.06;5134441;27;20048;-70
2021/12/31 09:46:04;;;;;;;13.90;9.27;;;;;;;16.29;44.42;95159.34;5134989;27;20414;-70
2021/12/31 09:48:30;;;;;;;18.05;10.23;;;;;;;16.26;44.75;95148.66;5134685;27;20019;-70
2021/12/31 09:50:56;;;;;;;12.50;7.18;;;;;;;16.44;44.59;95152.75;5134701;27;20119;-69
2021/12/31 09:53:24;;;;;;;11.52;7.25;;;;;;;16.13;45.53;95155.47;5133469;27;20030;-70
2021/12/31 09:55:54;;;;;;;13.23;7.03;;;;;;;16.16;45.89;95145.50;5134167;27;20399;-69
2021/12/31 09:58:23;;;;;;;8.98;6.38;;;;;;;14.23;50.31;95139.84;5134456;27;20102;-72
2021/12/31 10:00:51;;;;;;;8.35;5.70;;;;;;;13.73;52.14;95135.78;5134286;27;20037;-70
2021/12/31 10:03:24;;;;;;;8.85;5.85;;;;;;;14.64;49.76;95128.44;5134180;27;20098;-69
2021/12/31 10:06:11;;;;;;;13.40;6.20;;;;;;;16.54;49.21;95118.31;5134414;27;20425;-69
2021/12/31 10:08:39;;;;;;;6.90;4.40;;;;;;;15.48;54.22;95118.50;5133619;27;20042;-69
2021/12/31 10:11:22;;;;;;;8.52;3.80;;;;;;;14.34;54.26;95107.84;5134398;27;20031;-69
2021/12/31 10:13:55;;;;;;;17.38;4.38;;;;;;;14.49;55.09;95115.00;5134399;27;20023;-69
2021/12/31 10:16:28;;;;;;;12.82;4.90;;;;;;;15.13;53.31;95122.59;5134519;27;20114;-69
2021/12/31 10:19:09;;;;;;;8.93;3.85;;;;;;;14.64;53.98;95099.16;5133924;27;20031;-69
2021/12/31 10:21:54;;;;;;;5.40;3.53;;;;;;;14.53;52.80;95094.41;5133994;27;20042;-69
2021/12/31 10:24:25;;;;;;;2.97;2.53;;;;;;;13.89;56.49;95098.88;5134147;27;20023;-67
2021/12/31 10:26:56;;;;;;;5.95;2.55;;;;;;;13.61;56.95;95088.69;5134085;27;20023;-68
2021/12/31 10:29:23;;;;;;;3.47;2.10;;;;;;;12.27;59.22;95082.81;5137427;27;20030;-67
2021/12/31 10:31:51;;;;;;;5.05;2.58;;;;;;;12.24;59.07;95081.06;5138190;27;20111;-68
2021/12/31 10:34:36;;;;;;;3.85;2.40;;;;;;;11.82;61.64;95075.00;5138418;27;20034;-69
2021/12/31 10:37:24;;;;;;;5.70;2.42;;;;;;;11.51;63.87;95073.75;5138003;27;20095;-68
2021/12/31 10:39:56;;;;;;;3.85;2.38;;;;;;;12.02;62.36;95065.31;5137785;27;20034;-67
2021/12/31 10:42:31;;;;;;;3.88;2.60;;;;;;;12.16;62.58;95069.88;5137795;27;20027;-67
2021/12/31 10:45:03;;;;;;;3.58;2.60;;;;;;;11.74;64.57;95068.50;5137952;27;20034;-67
2021/12/31 10:47:42;;;;;;;3.90;2.40;;;;;;;11.97;64.34;95055.88;5138525;27;20356;-68
2021/12/31 10:50:12;;;;;;;3.72;2.80;;;;;;;11.16;67.16;95047.44;5137753;27;20069;-68
2021/12/31 10:53:06;;;;;;;17.40;7.90;;;;;;;13.45;69.72;95060.13;5137898;27;20428;-69
2021/12/31 10:55:34;;;;;;;5.25;3.30;;;;;;;11.71;67.48;95064.03;5138166;27;20117;-68
2021/12/31 10:58:03;;;;;;;8.05;3.00;;;;;;;10.85;70.36;95048.81;5137889;27;20019;-68
2021/12/31 11:00:34;;;;;;;4.78;3.17;;;;;;;10.81;71.30;95057.19;5137847;27;20015;-68
2021/12/31 11:03:01;;;;;;;6.90;3.17;;;;;;;10.55;72.88;95057.09;5137904;27;20181;-67
2021/12/31 11:05:27;;;;;;;3.65;3.15;;;;;;;10.02;75.47;95056.06;5136537;27;20102;-68
2021/12/31 11:07:54;;;;;;;4.78;3.05;;;;;;;9.72;78.24;95052.59;5136434;27;20175;-68
2021/12/31 11:10:25;;;;;;;4.32;3.28;;;;;;;9.80;77.17;95049.06;5137681;27;20027;-68
2021/12/31 11:12:52;;;;;;;4.88;3.30;;;;;;;9.59;78.89;95050.94;5136761;27;20375;-68
2021/12/31 11:15:18;;;;;;;5.55;3.35;;;;;;;9.60;78.58;95051.69;5136311;27;20027;-68
2021/12/31 11:17:44;;;;;;;7.30;3.45;;;;;;;9.56;80.61;95056.56;5137451;27;20023;-68
2021/12/31 11:20:12;;;;;;;6.68;3.33;;;;;;;9.44;81.13;95061.00;5136984;27;20114;-70
2021/12/31 11:22:38;;;;;;;9.52;3.20;;;;;;;9.76;79.88;95069.44;5137214;27;20098;-69
2021/12/31 11:25:24;;;;;;;7.38;3.55;;;;;;;9.59;81.53;95052.91;5137023;27;20465;-69
2021/12/31 11:27:52;;;;;;;5.88;3.13;;;;;;;9.51;80.85;95057.94;5137019;27;20034;-69
2021/12/31 11:30:28;;;;;;;5.18;3.42;;;;;;;9.56;81.08;95057.28;5136984;27;20506;-69
2021/12/31 11:33:08;;;;;;;6.28;3.72;;;;;;;9.54;80.56;95054.28;5137518;27;20027;-70